createdAt,value
2022-09-23T00:03:00.587Z,85.60
2022-09-23T00:07:39.613Z,86.70
2022-09-23T02:51:02.212Z,93.40
2022-09-23T02:55:18.573Z,93.70
2022-09-23T02:59:33.632Z,93.60
2022-09-23T03:04:13.147Z,93.30
2022-09-23T03:08:43.018Z,93.30
2022-09-23T03:13:06.273Z,93.20
2022-09-23T03:17:27.320Z,93.00
2022-09-23T03:21:46.220Z,92.90
2022-09-23T03:26:05.119Z,92.90
2022-09-23T03:30:21.717Z,92.80
2022-09-23T03:34:37.883Z,92.80
2022-09-23T03:38:54.948Z,92.70
2022-09-23T03:43:11.657Z,92.80
2022-09-23T03:47:27.019Z,92.90
2022-09-23T03:51:44.517Z,92.80
2022-09-23T03:55:58.750Z,93.20
2022-09-23T04:00:16.003Z,93.60
2022-09-23T04:04:33.957Z,93.80
2022-09-23T04:08:47.572Z,94.00
2022-09-23T04:13:01.335Z,94.20
2022-09-23T04:17:16.423Z,94.30
2022-09-23T04:21:31.617Z,94.40
2022-09-23T04:25:46.825Z,94.50
2022-09-23T04:30:00.564Z,94.60
2022-09-23T04:34:17.686Z,94.70
2022-09-23T04:38:31.625Z,94.70
2022-09-23T04:42:45.351Z,94.70
2022-09-23T04:46:59.060Z,94.70
2022-09-23T04:51:15.748Z,94.70
2022-09-23T04:55:29.757Z,94.70
2022-09-23T04:59:45.243Z,94.70
2022-09-23T05:04:02.434Z,94.70
2022-09-23T05:08:17.577Z,94.70
2022-09-23T05:12:31.241Z,94.60
2022-09-23T05:16:44.941Z,94.70
2022-09-23T05:20:58.761Z,95.40
2022-09-23T05:25:13.866Z,95.60
2022-09-23T05:29:27.953Z,95.00
2022-09-23T05:33:42.580Z,94.10
2022-09-23T05:37:56.236Z,91.90
2022-09-23T05:42:12.405Z,83.40
2022-09-23T05:46:28.225Z,80.60
2022-09-23T05:50:49.914Z,81.80
2022-09-23T05:55:03.679Z,83.70
2022-09-23T05:59:18.686Z,85.90
2022-09-23T06:03:32.414Z,87.80
2022-09-23T06:07:46.154Z,88.90
2022-09-23T06:11:59.904Z,89.60
2022-09-23T06:16:16.703Z,90.00
2022-09-23T06:20:30.976Z,90.20
2022-09-23T06:24:44.689Z,91.20
2022-09-23T06:28:58.473Z,91.30
2022-09-23T06:33:13.912Z,87.40
2022-09-23T06:37:27.935Z,76.80
2022-09-23T06:41:41.886Z,70.80
2022-09-23T06:46:02.124Z,65.60
2022-09-23T06:50:17.233Z,62.20
2022-09-23T06:54:31.719Z,60.20
2022-09-23T06:58:46.229Z,59.60
2022-09-23T07:02:59.942Z,56.70
2022-09-23T07:07:16.452Z,53.40
2022-09-23T07:11:30.552Z,51.30
2022-09-23T07:15:49.809Z,50.10
2022-09-23T07:20:04.535Z,47.20
2022-09-23T07:24:19.569Z,46.80
2022-09-23T07:28:33.355Z,45.10
2022-09-23T07:32:49.191Z,44.50
2022-09-23T07:37:03.127Z,44.60
2022-09-23T07:41:20.061Z,45.30
2022-09-23T07:45:34.391Z,45.30
2022-09-23T07:49:48.044Z,45.00
2022-09-23T07:54:02.031Z,42.10
2022-09-23T07:58:17.202Z,41.40
2022-09-23T08:02:31.437Z,40.90
2022-09-23T08:06:46.791Z,38.60
2022-09-23T08:11:03.263Z,38.60
2022-09-23T08:15:18.674Z,36.90
2022-09-23T08:19:32.720Z,36.60
2022-09-23T08:23:46.926Z,37.00
2022-09-23T08:28:01.162Z,38.00
2022-09-23T08:32:16.308Z,38.90
2022-09-23T08:36:30.023Z,39.20
2022-09-23T08:40:47.407Z,38.60
2022-09-23T08:45:04.651Z,38.00
2022-09-23T08:49:25.355Z,37.40
2022-09-23T08:53:40.400Z,36.90
2022-09-23T08:58:24.508Z,36.20
2022-09-23T09:02:38.996Z,35.10
2022-09-23T09:07:12.370Z,34.30
2022-09-23T09:11:37.098Z,33.50
2022-09-23T09:15:59.107Z,32.80
2022-09-23T09:20:23.261Z,33.40
2022-09-23T09:24:39.492Z,32.90
2022-09-23T09:29:11.417Z,33.30
2022-09-23T09:33:39.494Z,33.60
2022-09-23T09:37:53.466Z,34.30
2022-09-23T09:42:14.943Z,34.60
2022-09-23T09:46:45.181Z,33.00
2022-09-23T09:51:18.671Z,31.70
2022-09-23T09:55:32.543Z,30.60
2022-09-23T09:59:47.609Z,30.00
2022-09-23T10:04:04.632Z,29.10
2022-09-23T10:08:26.050Z,29.20
2022-09-23T10:12:46.187Z,29.10
2022-09-23T10:17:06.939Z,28.90
2022-09-23T10:21:27.716Z,29.00
2022-09-23T10:25:42.921Z,29.40
2022-09-23T10:29:58.108Z,29.10
2022-09-23T10:34:25.097Z,28.60
2022-09-23T10:38:39.002Z,29.10
2022-09-23T10:43:26.724Z,29.30
2022-09-23T10:47:50.679Z,29.90
2022-09-23T10:52:27.163Z,29.90
2022-09-23T10:56:44.316Z,29.60
2022-09-23T11:01:13.626Z,30.00
2022-09-23T11:05:36.716Z,29.90
2022-09-23T11:10:28.954Z,30.00
2022-09-23T11:15:14.463Z,29.80
2022-09-23T11:19:56.562Z,30.20
2022-09-23T11:24:51.010Z,30.50
2022-09-23T11:29:35.516Z,30.00
2022-09-23T11:34:01.668Z,28.90
2022-09-23T11:38:25.876Z,29.80
2022-09-23T11:42:45.566Z,31.00
2022-09-23T11:47:05.627Z,31.70
2022-09-23T11:51:24.640Z,31.60
2022-09-23T11:55:54.062Z,30.60
2022-09-23T12:00:19.085Z,30.60
2022-09-23T12:04:52.476Z,31.50
2022-09-23T12:09:31.158Z,32.20
2022-09-23T12:14:03.076Z,33.10
2022-09-23T12:18:42.206Z,34.30
2022-09-23T12:23:10.749Z,34.90
2022-09-23T12:27:34.122Z,35.60
2022-09-23T12:31:49.792Z,37.00
2022-09-23T12:36:06.060Z,38.00
2022-09-23T12:40:28.748Z,38.60
2022-09-23T12:44:44.650Z,38.80
2022-09-23T12:49:03.644Z,39.20
2022-09-23T12:53:54.735Z,39.60
2022-09-23T12:58:39.232Z,40.00
2022-09-23T13:03:16.630Z,39.70
2022-09-23T13:07:34.198Z,39.00
2022-09-23T13:11:50.469Z,39.00
2022-09-23T13:16:21.506Z,39.00
2022-09-23T13:20:38.485Z,38.40
2022-09-23T13:24:55.589Z,38.50
2022-09-23T13:29:18.139Z,38.60
2022-09-23T13:33:40.215Z,38.90
2022-09-23T13:37:55.313Z,39.10
2022-09-23T13:42:22.017Z,38.90
2022-09-23T13:46:42.895Z,39.20
2022-09-23T13:50:58.122Z,39.60
2022-09-23T13:55:29.163Z,40.10
2022-09-23T13:59:43.690Z,40.40
2022-09-23T14:03:57.471Z,41.10
2022-09-23T14:08:14.078Z,41.40
2022-09-23T14:12:28.307Z,41.90
2022-09-23T14:16:43.525Z,42.30
2022-09-23T14:20:57.464Z,42.60
2022-09-23T14:25:17.782Z,42.30
2022-09-23T14:29:34.623Z,42.20
2022-09-23T14:33:52.148Z,42.60
2022-09-23T14:38:23.912Z,42.70
2022-09-23T14:42:42.661Z,42.70
2022-09-23T14:46:58.958Z,42.80
2022-09-23T14:51:16.932Z,42.70
2022-09-23T14:55:32.132Z,42.70
2022-09-23T14:59:53.078Z,42.30
2022-09-23T15:04:16.871Z,42.50
2022-09-23T15:08:31.164Z,42.90
2022-09-23T15:12:45.615Z,43.10
2022-09-23T15:17:01.756Z,43.20
2022-09-23T15:21:18.984Z,43.00
2022-09-23T15:25:35.494Z,42.90
2022-09-23T15:29:50.859Z,42.60
2022-09-23T15:34:06.223Z,42.50
2022-09-23T15:38:20.022Z,42.20
2022-09-23T15:42:33.780Z,42.70
2022-09-23T15:46:49.968Z,43.00
2022-09-23T15:51:08.096Z,43.20
2022-09-23T15:55:23.604Z,43.30
2022-09-23T15:59:38.257Z,43.50
2022-09-23T16:03:51.930Z,43.30
2022-09-23T16:08:09.418Z,43.40
2022-09-23T16:12:23.441Z,43.90
2022-09-23T16:16:37.156Z,44.30
2022-09-23T16:20:51.304Z,44.80
2022-09-23T16:25:08.705Z,45.10
2022-09-23T16:29:22.428Z,45.30
2022-09-23T16:33:36.216Z,45.60
2022-09-23T16:37:50.815Z,45.80
2022-09-23T16:42:06.150Z,46.30
2022-09-23T16:46:21.375Z,47.00
2022-09-23T16:50:35.617Z,47.50
2022-09-23T16:54:49.662Z,48.30
2022-09-23T16:59:05.844Z,49.20
2022-09-23T17:03:37.301Z,49.80
2022-09-23T17:07:50.988Z,50.10
2022-09-23T17:12:12.830Z,50.50
2022-09-23T17:16:30.285Z,50.90
2022-09-23T17:20:43.992Z,51.60
2022-09-23T17:24:57.928Z,52.10
2022-09-23T17:29:11.819Z,53.00
2022-09-23T17:33:28.033Z,53.40
2022-09-23T17:37:41.941Z,54.00
2022-09-23T17:41:58.588Z,54.60
2022-09-23T17:46:14.856Z,55.30
2022-09-23T17:50:31.154Z,56.50
2022-09-23T17:54:45.367Z,56.30
2022-09-23T17:59:02.188Z,57.00
2022-09-23T18:03:15.908Z,57.30
2022-09-23T18:07:31.171Z,57.50
2022-09-23T18:11:48.049Z,58.00
2022-09-23T18:16:03.953Z,58.40
2022-09-23T18:20:17.811Z,58.70
2022-09-23T18:24:37.823Z,59.00
2022-09-23T18:28:55.667Z,59.50
2022-09-23T18:33:09.396Z,59.80
2022-09-23T18:37:23.130Z,60.10
2022-09-23T18:41:38.381Z,60.30
2022-09-23T18:45:59.660Z,60.70
2022-09-23T18:50:31.150Z,61.70
2022-09-23T18:54:45.011Z,61.80
2022-09-23T18:59:00.222Z,62.00
2022-09-23T19:03:14.132Z,62.40
2022-09-23T19:07:27.918Z,62.50
2022-09-23T19:11:41.645Z,62.70
2022-09-23T19:15:56.767Z,63.00
2022-09-23T19:20:11.155Z,63.40
2022-09-23T19:24:24.929Z,63.60
2022-09-23T19:28:39.227Z,63.60
2022-09-23T19:32:54.273Z,64.00
2022-09-23T19:37:07.921Z,64.30
2022-09-23T19:41:21.588Z,65.30
2022-09-23T19:45:36.000Z,64.80
2022-09-23T19:49:51.206Z,65.10
2022-09-23T19:54:07.130Z,65.40
2022-09-23T19:58:20.907Z,65.20
2022-09-23T20:02:35.044Z,65.40
2022-09-23T20:06:50.119Z,65.60
2022-09-23T20:11:10.152Z,65.70
2022-09-23T20:15:24.084Z,65.70
2022-09-23T20:19:37.897Z,65.60
2022-09-23T20:23:53.416Z,65.50
2022-09-23T20:28:07.045Z,65.70
2022-09-23T20:32:20.813Z,66.20
2022-09-23T20:36:35.394Z,67.20
2022-09-23T20:40:57.192Z,66.70
2022-09-23T20:45:11.509Z,66.80
2022-09-23T20:49:25.376Z,66.90
2022-09-23T20:53:39.024Z,67.10
2022-09-23T20:57:54.409Z,67.20
2022-09-23T21:02:09.076Z,67.40
2022-09-23T21:06:26.142Z,67.60
2022-09-23T21:10:39.911Z,67.70
2022-09-23T21:14:54.951Z,67.90
2022-09-23T21:19:09.035Z,68.10
2022-09-23T21:23:26.773Z,68.40
2022-09-23T21:27:40.521Z,68.60
2022-09-23T21:31:55.630Z,68.80
2022-09-23T21:36:10.592Z,68.90
2022-09-23T21:40:41.641Z,69.00
2022-09-23T21:44:55.388Z,69.80
2022-09-23T21:49:10.430Z,69.30
2022-09-23T21:53:24.909Z,69.50
2022-09-23T21:57:38.827Z,69.80
2022-09-23T22:01:54.321Z,70.30
2022-09-23T22:06:12.312Z,71.60
2022-09-23T22:10:25.960Z,71.40
2022-09-23T22:14:39.892Z,71.90
2022-09-23T22:18:55.219Z,72.40
2022-09-23T22:23:10.237Z,72.90
2022-09-23T22:27:24.949Z,73.60
2022-09-23T22:31:56.211Z,74.00
2022-09-23T22:36:11.548Z,74.30
2022-09-23T22:40:26.782Z,74.40
2022-09-23T22:44:41.606Z,75.00
2022-09-23T22:48:55.908Z,75.70
2022-09-23T22:53:11.373Z,76.30
2022-09-23T22:57:27.036Z,76.80
2022-09-23T23:01:41.975Z,77.00
2022-09-23T23:05:57.734Z,77.40
2022-09-23T23:10:15.587Z,77.80
2022-09-23T23:14:31.421Z,78.20
2022-09-23T23:18:47.645Z,78.60
2022-09-23T23:23:02.729Z,78.90
2022-09-23T23:27:16.713Z,79.10
2022-09-23T23:31:33.212Z,79.30
2022-09-23T23:35:51.608Z,79.60
2022-09-23T23:40:05.960Z,79.90
2022-09-23T23:44:19.809Z,79.90
2022-09-23T23:48:36.364Z,80.00
2022-09-23T23:52:50.044Z,80.20
2022-09-23T23:57:04.023Z,80.30
